Sweet Spot — WDF3145 — position and weather

sailwx.info

Track history (hours):
 
Tides and Currents Weather Stations Pressure Air Temp Water Temp Dewpoint Dewpoint Depression Visibility Wind Speed Wind Dir Waves Ship Positions

Sweet Spot

More information available from US FCC via Universal Licensing System and Coast Guard Vessel Documentation Center.

Last reported at 2014-Jul-05 15:24 UTC. Time now 2014-Jul-24 23:04 UTC.
Position N 48°28' W 123°06'.
Warning: this ship's position is 19 days out of date.

Length 12 m.

Type: Pleasure craft. MMSI: 367436440.

Date/timePositionNaut miles runAvg speedWind from/ knotsBaromVisibWave heightAir tempDewpointWater temp
2014-Jul-05 15:24N 48°28' W 123°06'9 9.9
2014-Jul-05 14:32N 48°35' W 123°12'  
2014-Jul-01 18:33N 48°34' W 123°12'6 5.8
2014-Jul-01 17:34N 48°29' W 123°07'  
2014-Jun-26 17:19N 47°57' W 122°35'810.3
2014-Jun-26 16:33N 47°50' W 122°29'8 9.7
2014-Jun-26 15:46N 47°43' W 122°28'2 9.4
2014-Jun-26 15:33N 47°41' W 122°29'0 8.8
2014-Jun-26 15:32N 47°40' W 122°29'8 8.0
2014-Jun-26 14:32N 47°33' W 122°29'0 0.0
2014-Jun-25 19:24N 47°33' W 122°29'5 6.5
2014-Jun-25 18:35N 47°38' W 122°29'0 8.5
2014-Jun-25 18:33N 47°38' W 122°29'0 8.4
2014-Jun-25 18:30N 47°39' W 122°29'8 8.3
2014-Jun-25 17:32N 47°46' W 122°28'2 1.3
2014-Jun-25 16:16N 47°48' W 122°30'  
Track history (hours):
 
Tides and Currents Weather Stations Pressure Air Temp Water Temp Dewpoint Dewpoint Depression Visibility Wind Speed Wind Dir Waves Ship Positions

Sweet Spot

More information available from US FCC via Universal Licensing System and Coast Guard Vessel Documentation Center.

Last reported at 2014-Jul-05 15:24 UTC. Time now 2014-Jul-24 23:04 UTC.
Position N 48°28' W 123°06'.
Warning: this ship's position is 19 days out of date.

Length 12 m.

Type: Pleasure craft. MMSI: 367436440.

Date/timePositionNaut miles runAvg speedWind from/ knotsBaromVisibWave heightAir tempDewpointWater temp
2014-Jul-05 15:24N 48°28' W 123°06'9 9.9
2014-Jul-05 14:32N 48°35' W 123°12'  
2014-Jul-01 18:33N 48°34' W 123°12'6 5.8
2014-Jul-01 17:34N 48°29' W 123°07'  
2014-Jun-26 17:19N 47°57' W 122°35'810.3
2014-Jun-26 16:33N 47°50' W 122°29'8 9.7
2014-Jun-26 15:46N 47°43' W 122°28'2 9.4
2014-Jun-26 15:33N 47°41' W 122°29'0 8.8
2014-Jun-26 15:32N 47°40' W 122°29'8 8.0
2014-Jun-26 14:32N 47°33' W 122°29'0 0.0
2014-Jun-25 19:24N 47°33' W 122°29'5 6.5
2014-Jun-25 18:35N 47°38' W 122°29'0 8.5
2014-Jun-25 18:33N 47°38' W 122°29'0 8.4
2014-Jun-25 18:30N 47°39' W 122°29'8 8.3
2014-Jun-25 17:32N 47°46' W 122°28'2 1.3
2014-Jun-25 16:16N 47°48' W 122°30'  

Dump ship's entire track history